Henderson, Argentina
Current Conditions -  °F | °C
As of 6:10 AM on Saturday 25 Oct 2014 (Local Time) from SAEZ Reporting Station
Haze Haze  
Wind Chill: 66°   Ceiling: Unl
Heat Index: 66°   Visibility: 1.8mi
Dew Point: 63°   Wind: 1mph
Humidity: 88%   Direction: 110°ESE
Pressure: 29.97"   Gusts: NA
Location:  36.3°S, 61.72°W
Report Text: SAEZ 250910Z 11001KT 3000 BR NSC 19/17 Q1015
Loading
Personal Weather Stations






























Interactive Weather Map
Tropical Storm Tracking
New forecast layout! Learn more

10-Day Weather Forecast

Advertisements
Track Severe Weather on mobile